Time;durP1;ratioP1;P1;durP2;ratioP2;P2;SDS_P1;SDS_P2;PMS_P1;PMS_P2;Temp;Humidity;BMP_temperature;BMP_pressure;BME280_temperature;BME280_humidity;BME280_pressure;Samples;Min_cycle;Max_cycle;Signal;HPM_P1;HPM_P2
2021/01/14 00:00:38;;;;;;;8.98;4.55;;;4.60;96.10;;;;;;5050983;28;20029;-50
2021/01/14 00:03:10;;;;;;;12.85;4.32;;;4.70;96.30;;;;;;5050988;28;20021;-48
2021/01/14 00:05:36;;;;;;;9.20;3.33;;;4.70;96.30;;;;;;5051003;28;20025;-49
2021/01/14 00:08:03;;;;;;;7.85;3.78;;;4.70;96.10;;;;;;5050676;28;20075;-47
2021/01/14 00:10:29;;;;;;;7.28;3.80;;;4.70;96.00;;;;;;5050685;28;20029;-47
2021/01/14 00:12:55;;;;;;;7.38;3.47;;;4.70;96.10;;;;;;5050582;28;20361;-48
2021/01/14 00:15:21;;;;;;;9.48;4.10;;;4.70;96.10;;;;;;5051521;28;20475;-48
2021/01/14 00:17:47;;;;;;;7.00;3.22;;;4.70;96.30;;;;;;5050887;28;20043;-48
2021/01/14 00:20:15;;;;;;;6.47;3.97;;;4.80;96.20;;;;;;5050198;28;20028;-52
2021/01/14 00:22:40;;;;;;;6.32;3.35;;;4.70;96.20;;;;;;5050521;28;20397;-53
2021/01/14 00:25:07;;;;;;;5.75;2.95;;;4.70;96.50;;;;;;5050851;28;20059;-48
2021/01/14 00:27:33;;;;;;;7.85;3.92;;;4.70;96.60;;;;;;5050372;28;20510;-54
2021/01/14 00:29:59;;;;;;;9.68;3.70;;;4.80;96.50;;;;;;5050517;28;20053;-54
2021/01/14 00:32:25;;;;;;;7.95;3.17;;;4.80;96.40;;;;;;5050680;28;20067;-53
2021/01/14 00:34:50;;;;;;;7.40;3.35;;;4.80;96.70;;;;;;5049902;28;20083;-50
2021/01/14 00:40:01;;;;;;;6.82;3.47;;;4.80;97.10;;;;;;5050669;28;20035;-45
2021/01/14 00:42:26;;;;;;;10.65;3.75;;;4.80;96.70;;;;;;5050294;28;20504;-47
2021/01/14 00:44:51;;;;;;;21.00;4.30;;;4.80;96.80;;;;;;5049273;28;20112;-46
2021/01/14 00:49:54;;;;;;;13.23;3.88;;;4.70;97.40;;;;;;5027883;28;20057;-47
2021/01/14 00:52:19;;;;;;;6.07;3.70;;;4.70;97.60;;;;;;5045051;28;20033;-52
2021/01/14 00:54:45;;;;;;;8.27;3.92;;;4.70;98.10;;;;;;5030305;28;20451;-52
2021/01/14 00:57:10;;;;;;;6.88;3.70;;;4.70;98.30;;;;;;5031050;28;20080;-48
2021/01/14 00:59:36;;;;;;;9.20;3.85;;;4.60;98.50;;;;;;5029068;28;20029;-46
2021/01/14 01:02:04;;;;;;;10.35;3.97;;;4.60;98.80;;;;;;5030778;28;20080;-52
2021/01/14 01:04:30;;;;;;;13.38;4.35;;;4.60;98.80;;;;;;5030019;28;20017;-49
2021/01/14 01:06:56;;;;;;;18.48;4.43;;;4.60;99.20;;;;;;5030816;28;20507;-46
2021/01/14 01:09:23;;;;;;;7.03;4.10;;;4.50;99.50;;;;;;5028325;28;20389;-49
2021/01/14 01:11:49;;;;;;;13.45;4.68;;;4.50;99.60;;;;;;5030563;28;20029;-47
2021/01/14 01:14:14;;;;;;;10.90;4.35;;;4.50;99.70;;;;;;5029946;28;20025;-47
2021/01/14 01:16:40;;;;;;;8.75;4.10;;;4.60;99.80;;;;;;5030595;28;20037;-45
2021/01/14 01:19:05;;;;;;;10.43;5.18;;;4.60;99.30;;;;;;5030737;28;20342;-50
2021/01/14 01:21:31;;;;;;;6.35;4.53;;;4.70;99.20;;;;;;5029241;28;20029;-50
2021/01/14 01:23:56;;;;;;;6.88;3.67;;;4.70;99.20;;;;;;5028487;28;20477;-51
2021/01/14 01:26:22;;;;;;;10.07;3.90;;;4.70;99.50;;;;;;5028771;28;20025;-48
2021/01/14 01:28:47;;;;;;;8.88;4.47;;;4.70;99.70;;;;;;5030386;28;20029;-47
2021/01/14 01:31:14;;;;;;;9.60;4.50;;;4.70;99.90;;;;;;5030840;28;20024;-46
2021/01/14 01:33:41;;;;;;;11.10;4.25;;;4.60;99.90;;;;;;5029841;28;20041;-48
2021/01/14 01:36:07;;;;;;;14.50;4.45;;;4.60;99.90;;;;;;5030983;28;20033;-45
2021/01/14 01:38:33;;;;;;;8.57;4.30;;;4.60;99.90;;;;;;5030200;28;20052;-50
2021/01/14 01:41:01;;;;;;;12.35;4.97;;;4.50;99.90;;;;;;5030483;28;20037;-45
2021/01/14 01:43:27;;;;;;;10.95;4.70;;;4.60;99.90;;;;;;5029741;28;20053;-45
2021/01/14 01:45:53;;;;;;;8.88;4.55;;;4.60;99.90;;;;;;5030730;28;20056;-49
2021/01/14 01:48:20;;;;;;;9.85;4.07;;;4.60;99.90;;;;;;5030418;28;20128;-49
2021/01/14 01:50:48;;;;;;;8.10;4.38;;;4.60;99.90;;;;;;5029045;28;20025;-49
2021/01/14 01:53:14;;;;;;;7.80;3.90;;;4.70;99.90;;;;;;5029587;28;20491;-50
2021/01/14 01:55:43;;;;;;;8.85;4.35;;;4.60;99.90;;;;;;5030608;28;20029;-48
2021/01/14 01:58:09;;;;;;;10.50;4.03;;;4.70;99.90;;;;;;5035863;28;20030;-47
2021/01/14 02:00:35;;;;;;;6.97;3.97;;;4.60;99.90;;;;;;5036426;28;20306;-47
2021/01/14 02:03:01;;;;;;;11.00;4.82;;;4.60;99.90;;;;;;5034487;28;20033;-50
2021/01/14 02:05:26;;;;;;;7.72;4.10;;;4.60;99.90;;;;;;5035152;28;20443;-47
2021/01/14 02:07:57;;;;;;;7.22;5.35;;;4.60;99.90;;;;;;5035123;28;20420;-48
2021/01/14 02:10:32;;;;;;;10.40;4.90;;;4.60;99.90;;;;;;5032928;28;20079;-46
2021/01/14 02:13:40;;;;;;;9.90;5.65;;;4.60;99.90;;;;;;5033433;28;20029;-47
2021/01/14 02:16:06;;;;;;;9.27;5.20;;;4.50;99.90;;;;;;5032684;28;20042;-47
2021/01/14 02:18:33;;;;;;;8.52;6.07;;;4.50;99.90;;;;;;5033628;28;20047;-45
2021/01/14 02:21:04;;;;;;;11.57;5.28;;;4.50;99.90;;;;;;5033657;28;20113;-49
2021/01/14 02:23:52;;;;;;;8.98;4.80;;;4.50;99.90;;;;;;5032900;28;20056;-47
2021/01/14 02:26:21;;;;;;;17.40;5.93;;;4.50;99.90;;;;;;5032809;28;20071;-45
2021/01/14 02:28:48;;;;;;;16.35;5.40;;;4.50;99.90;;;;;;5033407;28;20117;-52
2021/01/14 02:31:14;;;;;;;13.68;5.47;;;4.40;99.90;;;;;;5033503;28;20029;-48
2021/01/14 02:33:40;;;;;;;12.63;5.47;;;4.40;99.90;;;;;;5033321;28;20033;-46
2021/01/14 02:36:06;;;;;;;18.55;5.78;;;4.50;99.90;;;;;;5033726;28;20040;-46
2021/01/14 02:38:33;;;;;;;12.52;5.82;;;4.50;99.90;;;;;;5031997;28;20396;-47
2021/01/14 02:40:59;;;;;;;25.20;6.93;;;4.40;99.90;;;;;;5032376;28;20179;-49
2021/01/14 02:43:25;;;;;;;7.32;5.20;;;4.40;99.90;;;;;;5032723;28;20760;-45
2021/01/14 02:45:50;;;;;;;8.80;5.90;;;4.40;99.90;;;;;;5033491;28;20057;-46
2021/01/14 02:48:20;;;;;;;12.52;5.03;;;4.40;99.90;;;;;;5033165;28;20033;-46
2021/01/14 02:50:51;;;;;;;9.00;5.20;;;4.30;99.90;;;;;;5033346;28;20452;-50
2021/01/14 02:53:17;;;;;;;5.70;4.75;;;4.20;99.90;;;;;;5032605;28;20034;-51
2021/01/14 02:55:43;;;;;;;9.13;5.00;;;4.10;99.90;;;;;;5033214;28;20061;-47
2021/01/14 02:58:09;;;;;;;12.10;4.78;;;4.10;99.90;;;;;;5033112;28;20032;-48
2021/01/14 03:00:35;;;;;;;19.13;5.35;;;4.10;99.90;;;;;;5031790;28;20029;-49
2021/01/14 03:03:00;;;;;;;9.45;4.20;;;4.10;99.90;;;;;;5032430;28;20021;-46
2021/01/14 03:05:26;;;;;;;8.18;4.70;;;4.00;99.90;;;;;;5033024;28;20021;-48
2021/01/14 03:07:51;;;;;;;9.27;4.40;;;4.10;99.90;;;;;;5032490;28;20029;-53
2021/01/14 03:10:17;;;;;;;6.63;4.13;;;4.00;99.90;;;;;;5033073;28;20033;-48
2021/01/14 03:12:42;;;;;;;17.63;4.88;;;4.00;99.90;;;;;;5032519;28;20065;-47
2021/01/14 03:15:08;;;;;;;10.95;5.10;;;4.00;99.50;;;;;;5033018;28;20489;-48
2021/01/14 03:17:37;;;;;;;10.57;5.00;;;4.10;98.90;;;;;;5032799;28;20026;-49
2021/01/14 03:20:07;;;;;;;11.95;4.60;;;4.00;98.80;;;;;;5032730;28;20113;-48
2021/01/14 03:22:40;;;;;;;8.70;4.32;;;4.20;98.20;;;;;;5032405;28;20028;-48
2021/01/14 03:25:08;;;;;;;13.80;6.47;;;4.20;97.60;;;;;;5031481;28;20044;-48
2021/01/14 03:27:41;;;;;;;7.75;4.15;;;4.30;97.20;;;;;;5032421;28;20404;-52
2021/01/14 03:30:08;;;;;;;11.95;5.07;;;4.30;96.90;;;;;;5032497;28;20013;-50
2021/01/14 03:32:34;;;;;;;6.63;4.20;;;4.30;96.90;;;;;;5031467;28;20072;-49
2021/01/14 03:35:00;;;;;;;15.40;4.55;;;4.20;96.70;;;;;;5032183;28;20029;-50
2021/01/14 03:37:26;;;;;;;10.15;4.60;;;4.20;96.70;;;;;;5032140;28;20029;-50
2021/01/14 03:39:51;;;;;;;11.32;5.03;;;4.30;96.70;;;;;;5032276;28;20034;-48
2021/01/14 03:42:21;;;;;;;8.88;4.38;;;4.40;96.20;;;;;;5030720;28;20084;-50
2021/01/14 03:44:47;;;;;;;13.43;3.83;;;4.30;96.40;;;;;;5030122;28;20021;-48
2021/01/14 03:47:14;;;;;;;8.88;4.40;;;4.20;96.40;;;;;;5031942;28;20022;-47
2021/01/14 03:49:40;;;;;;;5.93;4.25;;;4.10;96.70;;;;;;5030587;28;20056;-46
2021/01/14 03:52:08;;;;;;;7.22;4.10;;;4.10;96.70;;;;;;5031953;28;20034;-48
2021/01/14 03:54:34;;;;;;;7.97;4.57;;;4.00;96.50;;;;;;5031276;28;20094;-46
2021/01/14 03:56:59;;;;;;;8.52;3.60;;;4.10;96.50;;;;;;5032187;28;20029;-46
2021/01/14 03:59:25;;;;;;;9.73;3.85;;;4.00;96.50;;;;;;5031719;28;20084;-52
2021/01/14 04:01:50;;;;;;;7.68;3.78;;;4.10;96.20;;;;;;5031749;28;20480;-50
2021/01/14 04:04:16;;;;;;;10.88;3.42;;;4.00;95.90;;;;;;5029783;28;20018;-49
2021/01/14 04:06:41;;;;;;;11.52;4.93;;;4.10;95.40;;;;;;5031952;28;20084;-48
2021/01/14 04:09:07;;;;;;;9.93;3.15;;;4.10;95.20;;;;;;5031689;28;20480;-48
2021/01/14 04:11:33;;;;;;;14.07;3.47;;;4.10;95.10;;;;;;5031644;28;20120;-51
2021/01/14 04:13:59;;;;;;;5.63;3.72;;;4.10;95.30;;;;;;5029673;28;20021;-47
2021/01/14 04:16:25;;;;;;;13.27;3.45;;;4.10;95.30;;;;;;5031418;28;20025;-51
2021/01/14 04:18:51;;;;;;;5.32;3.53;;;4.00;95.00;;;;;;5030437;28;20032;-53
2021/01/14 04:21:16;;;;;;;6.82;3.67;;;4.00;95.00;;;;;;5031389;28;20022;-51
2021/01/14 04:23:45;;;;;;;7.38;3.00;;;4.00;94.80;;;;;;5029208;28;20100;-47
2021/01/14 04:26:12;;;;;;;13.18;4.35;;;4.10;94.90;;;;;;5030231;28;20018;-51
2021/01/14 04:28:38;;;;;;;5.65;3.58;;;4.10;94.80;;;;;;5031033;28;20096;-50
2021/01/14 04:31:04;;;;;;;10.90;3.00;;;4.20;94.50;;;;;;5031642;28;20030;-48
2021/01/14 04:33:30;;;;;;;17.02;3.92;;;4.30;94.40;;;;;;5030530;28;20508;-50
2021/01/14 04:35:58;;;;;;;8.48;3.42;;;4.30;94.40;;;;;;5031217;28;20108;-49
2021/01/14 04:38:25;;;;;;;14.70;4.65;;;4.20;94.30;;;;;;5031020;28;20033;-51
2021/01/14 04:41:02;;;;;;;7.57;3.33;;;4.20;94.10;;;;;;5031092;28;20030;-53
2021/01/14 04:43:31;;;;;;;9.35;2.85;;;4.20;94.30;;;;;;5030095;28;20057;-47
2021/01/14 04:46:04;;;;;;;6.28;3.03;;;4.10;94.20;;;;;;5030895;28;20080;-47
2021/01/14 04:48:40;;;;;;;5.05;3.70;;;4.10;94.10;;;;;;5030906;28;20034;-48
2021/01/14 04:51:08;;;;;;;4.68;2.60;;;4.00;94.00;;;;;;5031000;28;20112;-51
2021/01/14 04:53:35;;;;;;;9.57;3.15;;;3.90;94.00;;;;;;5030173;28;20159;-49
2021/01/14 04:56:03;;;;;;;11.30;2.90;;;3.80;94.20;;;;;;5030739;28;20030;-45
2021/01/14 04:58:29;;;;;;;5.78;2.78;;;3.70;94.40;;;;;;5029362;28;20033;-46
2021/01/14 05:00:57;;;;;;;5.15;3.08;;;3.70;94.40;;;;;;5030851;28;20555;-46
2021/01/14 05:03:25;;;;;;;8.63;3.78;;;3.70;94.60;;;;;;5029911;28;20033;-48
2021/01/14 05:05:51;;;;;;;11.73;2.42;;;3.70;94.40;;;;;;5030792;28;20040;-46
2021/01/14 05:08:24;;;;;;;10.32;3.10;;;3.70;94.00;;;;;;5030830;28;20025;-47
2021/01/14 05:10:51;;;;;;;5.30;2.45;;;3.90;94.10;;;;;;5030637;28;20136;-49
2021/01/14 05:13:16;;;;;;;5.32;2.63;;;3.90;94.00;;;;;;5028780;28;20485;-50
2021/01/14 05:15:42;;;;;;;10.02;2.72;;;3.90;94.20;;;;;;5030620;28;20037;-47
2021/01/14 05:18:07;;;;;;;11.73;3.38;;;4.00;94.00;;;;;;5030479;28;20029;-47
2021/01/14 05:20:33;;;;;;;5.90;1.85;;;4.00;93.90;;;;;;5030507;28;20116;-48
2021/01/14 05:23:01;;;;;;;5.20;2.50;;;3.90;94.00;;;;;;5028579;28;20128;-49
2021/01/14 05:25:27;;;;;;;8.93;2.22;;;3.90;93.80;;;;;;5029401;28;20029;-49
2021/01/14 05:27:52;;;;;;;5.95;2.50;;;3.80;93.40;;;;;;5030418;28;20018;-51
2021/01/14 05:30:19;;;;;;;5.65;2.60;;;3.80;93.50;;;;;;5030583;28;20021;-50
2021/01/14 05:32:45;;;;;;;7.53;2.83;;;3.70;93.60;;;;;;5028509;28;20025;-47
2021/01/14 05:35:15;;;;;;;7.97;2.40;;;3.70;93.60;;;;;;5030517;28;20063;-45
2021/01/14 05:37:43;;;;;;;5.93;2.22;;;3.50;93.50;;;;;;5030251;28;20041;-46
2021/01/14 05:40:24;;;;;;;8.10;1.50;;;3.50;93.30;;;;;;5030500;28;20511;-46
2021/01/14 05:43:06;;;;;;;5.97;1.73;;;3.50;93.20;;;;;;5029662;28;20033;-46
2021/01/14 05:45:33;;;;;;;4.13;1.60;;;3.50;93.50;;;;;;5030411;28;20412;-50
2021/01/14 05:48:12;;;;;;;5.22;1.80;;;3.60;93.30;;;;;;5030158;28;20030;-48
2021/01/14 05:50:47;;;;;;;9.00;2.67;;;3.60;93.40;;;;;;5030478;28;20104;-47
2021/01/14 05:53:17;;;;;;;9.30;1.80;;;3.60;93.20;;;;;;5029716;28;20033;-46
2021/01/14 05:55:45;;;;;;;3.25;1.45;;;3.60;92.80;;;;;;5030499;28;20067;-47
2021/01/14 05:58:16;;;;;;;4.57;1.92;;;3.50;92.90;;;;;;5030283;28;20155;-47
2021/01/14 06:00:44;;;;;;;8.65;2.05;;;3.50;93.20;;;;;;5030394;28;20032;-49
2021/01/14 06:03:27;;;;;;;8.07;1.83;;;3.50;93.50;;;;;;5030191;28;20022;-49
2021/01/14 06:05:53;;;;;;;4.32;1.40;;;3.50;93.60;;;;;;5035481;28;20033;-45
2021/01/14 06:08:27;;;;;;;8.98;1.90;;;3.50;94.10;;;;;;5035751;28;20033;-49
2021/01/14 06:10:53;;;;;;;5.65;2.10;;;3.50;94.30;;;;;;5035092;28;20400;-49
2021/01/14 06:13:18;;;;;;;3.88;1.63;;;3.50;93.80;;;;;;5034634;28;20049;-50
2021/01/14 06:15:57;;;;;;;4.38;1.70;;;3.50;93.70;;;;;;5032748;28;20028;-45
2021/01/14 06:18:22;;;;;;;4.95;1.55;;;3.50;93.50;;;;;;5030028;28;20029;-50
2021/01/14 06:20:52;;;;;;;6.35;1.48;;;3.50;93.60;;;;;;5029990;28;20064;-47
2021/01/14 06:23:25;;;;;;;8.88;1.65;;;3.50;93.70;;;;;;5029262;28;20021;-48
2021/01/14 06:25:52;;;;;;;4.03;1.20;;;3.50;93.30;;;;;;5028853;28;20017;-49
2021/01/14 06:28:32;;;;;;;4.30;1.50;;;3.60;93.20;;;;;;5029948;28;20022;-45
2021/01/14 06:31:08;;;;;;;4.13;1.23;;;3.60;93.20;;;;;;5029984;28;20026;-46
2021/01/14 06:33:35;;;;;;;3.88;1.70;;;3.50;93.30;;;;;;5029365;28;20036;-47
2021/01/14 06:36:09;;;;;;;7.55;1.67;;;3.50;93.30;;;;;;5029897;28;20030;-50
2021/01/14 06:38:42;;;;;;;4.45;2.50;;;3.50;93.50;;;;;;5028616;28;20022;-48
2021/01/14 06:41:15;;;;;;;6.07;1.70;;;3.50;93.80;;;;;;5029661;28;20026;-46
2021/01/14 06:43:42;;;;;;;8.30;1.92;;;3.50;93.90;;;;;;5030904;28;20080;-48
2021/01/14 06:46:19;;;;;;;8.93;2.35;;;3.50;93.90;;;;;;5033694;28;20025;-50
2021/01/14 06:48:58;;;;;;;6.38;1.50;;;3.60;93.90;;;;;;5044912;22;20060;-44
2021/01/14 06:51:31;;;;;;;3.15;1.55;;;3.70;93.40;;;;;;5013398;28;20485;-45
2021/01/14 06:54:09;;;;;;;9.40;2.10;;;3.70;93.40;;;;;;5012736;28;20544;-45
2021/01/14 06:56:45;;;;;;;2.53;1.65;;;3.60;93.70;;;;;;5013423;28;20080;-46
2021/01/14 06:59:15;;;;;;;10.88;2.25;;;3.50;94.00;;;;;;5013309;28;20041;-45
2021/01/14 07:01:45;;;;;;;7.07;2.22;;;3.60;94.30;;;;;;5013226;28;20018;-45
2021/01/14 07:04:30;;;;;;;3.88;1.58;;;3.60;94.00;;;;;;5012783;28;20048;-46
2021/01/14 07:07:14;;;;;;;5.77;1.97;;;3.50;94.30;;;;;;5012058;28;20026;-46
2021/01/14 07:09:46;;;;;;;8.02;2.53;;;3.50;94.40;;;;;;5013169;28;20022;-50
2021/01/14 07:12:15;;;;;;;7.35;1.92;;;3.30;94.40;;;;;;5013342;28;20112;-50
2021/01/14 07:14:47;;;;;;;7.03;2.05;;;3.30;94.70;;;;;;5012907;28;20033;-46
2021/01/14 07:17:30;;;;;;;14.02;3.72;;;3.30;94.90;;;;;;5013155;28;20152;-46
2021/01/14 07:19:56;;;;;;;7.78;2.97;;;3.30;94.70;;;;;;5013106;28;20485;-46
2021/01/14 07:22:22;;;;;;;13.25;2.72;;;3.30;94.90;;;;;;5011854;28;20559;-48
2021/01/14 07:24:49;;;;;;;8.88;2.33;;;3.30;94.80;;;;;;5010111;28;20026;-48
2021/01/14 07:27:15;;;;;;;8.70;3.30;;;3.30;94.80;;;;;;5012966;28;20014;-49
2021/01/14 07:29:43;;;;;;;5.50;2.40;;;3.30;95.00;;;;;;5012844;28;20350;-47
2021/01/14 07:32:09;;;;;;;6.25;2.58;;;3.20;94.90;;;;;;5012753;28;20088;-48
2021/01/14 07:34:45;;;;;;;7.88;2.63;;;3.20;94.70;;;;;;5012216;28;20396;-43
2021/01/14 07:37:12;;;;;;;6.57;2.30;;;3.30;95.00;;;;;;5013857;28;20022;-49
2021/01/14 07:39:51;;;;;;;11.43;2.13;;;3.20;95.10;;;;;;5013099;28;20456;-49
2021/01/14 07:42:23;;;;;;;7.82;3.03;;;3.20;95.40;;;;;;5012816;28;20504;-49
2021/01/14 07:44:52;;;;;;;7.82;2.42;;;3.30;95.80;;;;;;5011844;28;20055;-47
2021/01/14 07:47:24;;;;;;;4.40;1.52;;;3.20;95.60;;;;;;5012639;28;20028;-47
2021/01/14 07:49:50;;;;;;;4.88;2.25;;;3.30;95.60;;;;;;5012252;28;20034;-47
2021/01/14 07:52:34;;;;;;;4.55;1.63;;;3.30;95.60;;;;;;5012777;28;20048;-46
2021/01/14 07:55:06;;;;;;;11.15;1.70;;;3.30;95.30;;;;;;5012737;28;20030;-49
2021/01/14 07:57:52;;;;;;;12.77;2.38;;;3.30;95.40;;;;;;5012186;28;20021;-46
2021/01/14 08:00:22;;;;;;;5.18;2.05;;;3.30;95.50;;;;;;5012118;28;20021;-46
2021/01/14 08:03:08;;;;;;;4.18;1.55;;;3.20;95.50;;;;;;5011507;28;20033;-48
2021/01/14 08:05:41;;;;;;;3.78;1.35;;;3.20;96.30;;;;;;5011845;28;20025;-45
2021/01/14 08:08:28;;;;;;;9.02;2.75;;;3.20;96.50;;;;;;5012085;28;20030;-47
2021/01/14 08:11:07;;;;;;;6.60;1.83;;;3.20;96.30;;;;;;5012202;28;20060;-46
2021/01/14 08:14:13;;;;;;;5.35;2.00;;;3.10;95.80;;;;;;5011578;28;20042;-49
2021/01/14 08:16:49;;;;;;;8.70;2.08;;;3.20;95.40;;;;;;5011703;28;20136;-51
2021/01/14 08:19:34;;;;;;;8.32;1.45;;;3.10;96.30;;;;;;5011794;28;20033;-45
2021/01/14 08:22:00;;;;;;;3.83;2.05;;;3.10;96.50;;;;;;5011669;28;20177;-48
2021/01/14 08:24:38;;;;;;;5.25;2.53;;;3.10;96.00;;;;;;5009460;28;20029;-49
2021/01/14 08:27:06;;;;;;;8.35;2.00;;;3.10;96.00;;;;;;5011690;28;20365;-48
2021/01/14 08:29:43;;;;;;;8.40;2.28;;;3.20;95.90;;;;;;5011561;28;20072;-44
2021/01/14 08:32:36;;;;;;;5.55;1.58;;;3.20;95.70;;;;;;5011573;28;20026;-51
2021/01/14 08:35:13;;;;;;;11.82;2.08;;;3.20;95.60;;;;;;5011733;28;20117;-49
2021/01/14 08:37:57;;;;;;;7.55;1.70;;;3.30;95.90;;;;;;5011327;28;20041;-46
2021/01/14 08:40:22;;;;;;;5.70;2.00;;;3.40;95.40;;;;;;5011723;28;20061;-49
2021/01/14 08:43:17;;;;;;;8.38;2.35;;;3.40;95.20;;;;;;5010571;28;20039;-50
2021/01/14 08:45:48;;;;;;;6.65;1.67;;;3.50;95.10;;;;;;5011394;28;20515;-50
2021/01/14 08:48:27;;;;;;;5.18;2.10;;;3.40;94.90;;;;;;5011309;28;20065;-45
2021/01/14 08:50:56;;;;;;;4.25;1.67;;;3.50;94.90;;;;;;5011488;28;20559;-48
2021/01/14 08:53:21;;;;;;;7.60;1.45;;;3.60;94.70;;;;;;5010277;28;20026;-48
2021/01/14 08:55:59;;;;;;;3.10;1.50;;;3.60;94.40;;;;;;5011250;28;20370;-46
2021/01/14 08:58:44;;;;;;;4.93;1.80;;;3.60;94.30;;;;;;5011102;28;20067;-48
2021/01/14 09:01:32;;;;;;;8.65;3.40;;;3.70;94.30;;;;;;5011151;28;20018;-48
2021/01/14 09:03:58;;;;;;;8.95;1.98;;;3.90;93.40;;;;;;5010338;28;20489;-47
2021/01/14 09:06:38;;;;;;;8.55;2.45;;;4.00;93.10;;;;;;5010446;28;20121;-51
2021/01/14 09:09:09;;;;;;;5.95;2.17;;;3.90;92.90;;;;;;5010561;28;20053;-48
2021/01/14 09:11:36;;;;;;;6.28;2.80;;;3.90;93.00;;;;;;5010895;28;20030;-45
2021/01/14 09:14:08;;;;;;;7.78;2.70;;;4.00;93.10;;;;;;5010239;28;20029;-47
2021/01/14 09:16:34;;;;;;;9.10;2.75;;;4.00;92.70;;;;;;5010803;28;20033;-46
2021/01/14 09:19:00;;;;;;;7.55;2.15;;;4.00;93.00;;;;;;5010728;28;20038;-46
2021/01/14 09:21:27;;;;;;;9.07;2.83;;;4.00;93.20;;;;;;5010584;28;20033;-47
2021/01/14 09:23:52;;;;;;;9.75;2.65;;;3.90;92.90;;;;;;5009877;28;20105;-46
2021/01/14 09:26:20;;;;;;;7.20;3.08;;;4.00;92.90;;;;;;5009609;28;20105;-47
2021/01/14 09:28:51;;;;;;;8.60;2.83;;;3.90;92.80;;;;;;5010504;28;20018;-46
2021/01/14 09:31:17;;;;;;;10.60;2.70;;;3.90;93.30;;;;;;5010448;28;20472;-47
2021/01/14 09:33:45;;;;;;;13.70;2.65;;;3.80;93.30;;;;;;5010136;28;20051;-44
2021/01/14 09:36:17;;;;;;;5.93;2.15;;;3.90;93.10;;;;;;5010723;28;20072;-50
2021/01/14 09:38:48;;;;;;;5.20;2.30;;;3.80;93.40;;;;;;5010480;28;20030;-46
2021/01/14 09:41:24;;;;;;;5.78;2.40;;;3.80;93.10;;;;;;5010448;28;20121;-47
2021/01/14 09:44:14;;;;;;;2.10;1.65;;;3.80;93.00;;;;;;5009665;28;20022;-46
2021/01/14 09:46:49;;;;;;;5.88;2.15;;;3.80;92.90;;;;;;5007887;28;20126;-48
2021/01/14 09:49:19;;;;;;;5.38;2.03;;;3.80;92.90;;;;;;5010580;28;20034;-47
2021/01/14 09:51:46;;;;;;;8.95;2.50;;;3.70;92.50;;;;;;5010256;28;20018;-46
2021/01/14 09:54:13;;;;;;;8.38;2.53;;;3.80;92.60;;;;;;5009801;28;20026;-47
2021/01/14 09:56:43;;;;;;;6.68;2.35;;;3.80;92.60;;;;;;5008936;28;20034;-44
2021/01/14 09:59:21;;;;;;;7.25;2.25;;;3.80;93.00;;;;;;5010347;28;20436;-45
2021/01/14 10:02:10;;;;;;;3.55;1.98;;;3.90;92.70;;;;;;5010223;28;20030;-47
2021/01/14 10:04:42;;;;;;;7.18;2.10;;;3.90;92.60;;;;;;5008793;28;20416;-45
2021/01/14 10:07:13;;;;;;;9.30;2.10;;;3.90;92.70;;;;;;5009949;28;20072;-50
2021/01/14 10:09:39;;;;;;;14.88;2.17;;;3.90;92.40;;;;;;5010228;28;20065;-45
2021/01/14 10:12:06;;;;;;;13.05;2.40;;;3.80;92.50;;;;;;5010421;28;20056;-46
2021/01/14 10:14:32;;;;;;;6.95;2.10;;;3.70;92.40;;;;;;5009590;28;20101;-45
2021/01/14 10:17:08;;;;;;;7.88;2.33;;;3.60;92.10;;;;;;5011063;28;20096;-45
2021/01/14 10:19:37;;;;;;;6.82;1.83;;;3.60;92.40;;;;;;5014083;28;20109;-46
2021/01/14 10:22:06;;;;;;;9.88;2.75;;;3.60;92.40;;;;;;5014065;28;20046;-45
2021/01/14 10:24:31;;;;;;;6.00;1.92;;;3.70;92.50;;;;;;5011485;28;20107;-48
2021/01/14 10:27:19;;;;;;;4.20;1.60;;;3.70;92.00;;;;;;5014094;28;20042;-45
2021/01/14 10:29:46;;;;;;;14.13;3.47;;;3.70;92.00;;;;;;5013707;28;20076;-45
2021/01/14 10:32:13;;;;;;;9.75;1.98;;;3.70;91.70;;;;;;5013615;28;20113;-50
2021/01/14 10:34:47;;;;;;;6.40;1.80;;;3.70;91.20;;;;;;5013058;28;20037;-46
2021/01/14 10:37:18;;;;;;;12.88;2.30;;;3.60;91.60;;;;;;5013894;28;20033;-47
2021/01/14 10:39:43;;;;;;;7.07;2.58;;;3.60;91.50;;;;;;5013292;28;20030;-46
2021/01/14 10:42:35;;;;;;;5.43;2.10;;;3.70;91.50;;;;;;5013138;28;20040;-50
2021/01/14 10:45:03;;;;;;;7.72;2.38;;;3.70;91.10;;;;;;5013426;28;20018;-46
2021/01/14 10:47:29;;;;;;;11.25;2.90;;;3.70;90.90;;;;;;5013545;28;20465;-50
2021/01/14 10:49:54;;;;;;;3.60;1.70;;;3.80;90.90;;;;;;5013121;28;20412;-46
2021/01/14 10:52:20;;;;;;;9.13;1.98;;;3.80;90.40;;;;;;5013640;28;20026;-47
2021/01/14 10:55:04;;;;;;;7.53;2.17;;;3.80;90.70;;;;;;5012835;28;20040;-49
2021/01/14 10:57:49;;;;;;;8.80;2.30;;;3.90;90.50;;;;;;5013509;28;20452;-50
2021/01/14 11:00:25;;;;;;;3.33;2.00;;;3.80;90.20;;;;;;5013174;28;20022;-49
2021/01/14 11:03:00;;;;;;;6.40;2.20;;;3.70;89.80;;;;;;5026892;28;20082;-46
2021/01/14 11:05:47;;;;;;;6.63;2.33;;;3.70;90.20;;;;;;5028481;28;20018;-48
2021/01/14 11:08:21;;;;;;;6.20;2.75;;;3.60;90.70;;;;;;5020842;28;20265;-51
2021/01/14 11:11:00;;;;;;;7.03;2.35;;;3.60;91.20;;;;;;5028866;28;20026;-47
2021/01/14 11:13:35;;;;;;;8.20;2.67;;;3.60;91.30;;;;;;5011960;28;20202;-51
2021/01/14 11:16:01;;;;;;;5.75;2.38;;;3.70;91.40;;;;;;5024891;28;20425;-46
2021/01/14 11:18:26;;;;;;;6.57;2.30;;;3.80;91.00;;;;;;5032757;28;20108;-45
2021/01/14 11:20:52;;;;;;;4.18;2.00;;;3.70;91.00;;;;;;5021527;28;20033;-44
2021/01/14 11:23:17;;;;;;;4.47;2.20;;;3.70;90.60;;;;;;5012329;28;20034;-43
2021/01/14 11:25:43;;;;;;;8.02;4.53;;;3.70;90.80;;;;;;5003485;28;20033;-46
2021/01/14 11:28:08;;;;;;;6.07;2.70;;;3.70;90.40;;;;;;4992064;28;20034;-45
2021/01/14 11:30:34;;;;;;;6.53;2.20;;;3.70;90.80;;;;;;5001067;28;20398;-47
2021/01/14 11:32:59;;;;;;;4.40;2.40;;;3.80;91.00;;;;;;5006598;28;20137;-46
2021/01/14 11:35:24;;;;;;;11.77;2.70;;;3.80;90.80;;;;;;4993146;28;20485;-44
2021/01/14 11:37:50;;;;;;;6.75;2.30;;;3.90;90.50;;;;;;5009160;28;20030;-46
2021/01/14 11:40:16;;;;;;;5.38;2.33;;;4.00;90.10;;;;;;5009979;28;20038;-45
2021/01/14 11:42:41;;;;;;;4.28;2.20;;;4.00;90.40;;;;;;5002295;28;20109;-44
2021/01/14 11:45:07;;;;;;;6.78;1.90;;;3.90;89.90;;;;;;5010946;28;20114;-46
2021/01/14 11:47:33;;;;;;;10.43;2.10;;;3.90;90.20;;;;;;5011325;28;20038;-44
2021/01/14 11:49:58;;;;;;;11.55;2.30;;;3.90;90.20;;;;;;5012876;28;20034;-45
2021/01/14 11:52:24;;;;;;;7.07;2.40;;;3.80;90.60;;;;;;5002989;28;20234;-48
2021/01/14 11:54:50;;;;;;;4.68;2.30;;;3.90;91.00;;;;;;5007478;28;20080;-45
2021/01/14 11:57:15;;;;;;;9.82;2.00;;;3.90;91.00;;;;;;5012684;28;20492;-43
2021/01/14 11:59:41;;;;;;;5.78;2.25;;;4.00;90.80;;;;;;5007520;28;20061;-45
2021/01/14 12:02:07;;;;;;;6.63;1.98;;;4.00;91.10;;;;;;5025226;28;20029;-43
2021/01/14 12:04:32;;;;;;;4.00;1.88;;;4.00;90.60;;;;;;4991523;28;20645;-46
2021/01/14 12:06:58;;;;;;;5.95;2.70;;;4.00;90.30;;;;;;5004907;28;20044;-43
2021/01/14 12:09:23;;;;;;;5.35;3.28;;;4.00;90.50;;;;;;5009485;28;20405;-43
2021/01/14 12:11:53;;;;;;;4.55;2.20;;;4.00;90.80;;;;;;4992796;28;20473;-44
2021/01/14 12:14:19;;;;;;;9.48;3.20;;;4.10;90.70;;;;;;4992915;28;20117;-47
2021/01/14 12:16:44;;;;;;;6.38;2.03;;;4.20;90.50;;;;;;4996074;28;20508;-50
2021/01/14 12:19:10;;;;;;;4.43;1.90;;;4.20;91.00;;;;;;5011569;28;20044;-51
2021/01/14 12:21:35;;;;;;;4.00;2.10;;;4.20;91.10;;;;;;5008445;28;20505;-46
2021/01/14 12:24:01;;;;;;;6.75;1.92;;;4.20;91.20;;;;;;4991788;28;20038;-46
2021/01/14 12:26:27;;;;;;;4.30;2.30;;;4.20;91.00;;;;;;4993345;28;20486;-49
2021/01/14 12:28:52;;;;;;;14.00;2.45;;;4.30;90.30;;;;;;4991727;28;20030;-48
2021/01/14 12:31:18;;;;;;;4.35;2.45;;;4.20;90.40;;;;;;5000790;28;20543;-49
2021/01/14 12:33:43;;;;;;;2.72;1.90;;;4.10;90.70;;;;;;4993876;28;20034;-52
2021/01/14 12:36:09;;;;;;;5.22;2.08;;;4.00;90.80;;;;;;4998905;28;20084;-47
2021/01/14 12:38:35;;;;;;;2.85;2.22;;;4.10;90.20;;;;;;5010797;28;20038;-48
2021/01/14 12:41:00;;;;;;;5.15;2.60;;;4.10;90.20;;;;;;5008891;28;20065;-48
2021/01/14 12:43:26;;;;;;;6.82;2.88;;;3.90;90.70;;;;;;4996611;28;20028;-50
2021/01/14 12:45:51;;;;;;;3.83;2.65;;;3.80;90.80;;;;;;5011017;28;20508;-48
2021/01/14 12:48:20;;;;;;;5.35;2.60;;;3.80;91.20;;;;;;4998797;28;20034;-47
2021/01/14 12:50:46;;;;;;;6.43;2.85;;;3.80;91.60;;;;;;4992468;28;20029;-49
2021/01/14 12:53:11;;;;;;;6.78;3.30;;;3.70;91.20;;;;;;5006428;28;20409;-50
2021/01/14 12:55:37;;;;;;;6.53;3.15;;;3.80;91.30;;;;;;5006450;28;20149;-52
2021/01/14 12:58:03;;;;;;;3.85;2.25;;;3.90;91.80;;;;;;5019928;28;20029;-51
2021/01/14 13:00:29;;;;;;;6.70;2.28;;;3.80;91.10;;;;;;5030570;28;20083;-52
2021/01/14 13:02:54;;;;;;;3.30;2.63;;;3.90;91.90;;;;;;5013794;28;20105;-57
2021/01/14 13:05:20;;;;;;;6.78;2.95;;;3.80;91.80;;;;;;5009830;28;20033;-53
2021/01/14 13:07:45;;;;;;;6.90;2.70;;;3.80;91.60;;;;;;5003891;28;20092;-55
2021/01/14 13:10:11;;;;;;;9.48;2.92;;;3.80;90.60;;;;;;4993740;28;20106;-59
2021/01/14 13:12:37;;;;;;;12.98;3.20;;;3.60;91.10;;;;;;4998674;28;20034;-55